Time;durP1;ratioP1;P1;durP2;ratioP2;P2;SDS_P1;SDS_P2;PMS_P1;PMS_P2;Temp;Humidity;BMP_temperature;BMP_pressure;BME280_temperature;BME280_humidity;BME280_pressure;Samples;Min_cycle;Max_cycle;Signal;HPM_P1;HPM_P2
2023/10/31 00:02:09;;;;;;;10.57;4.40;;;13.70;99.90;;;;;;5106750;28;20410;-58
2023/10/31 00:04:37;;;;;;;4.80;3.60;;;13.70;99.90;;;;;;5119871;28;20882;-60
2023/10/31 00:07:05;;;;;;;8.53;4.43;;;13.60;99.90;;;;;;5118606;28;20521;-65
2023/10/31 00:09:32;;;;;;;5.13;3.90;;;13.60;99.90;;;;;;5119090;28;20450;-62
2023/10/31 00:11:59;;;;;;;5.40;3.80;;;13.60;99.90;;;;;;5104672;28;20492;-66
2023/10/31 00:14:29;;;;;;;8.53;4.37;;;13.60;99.90;;;;;;5113686;28;20418;-58
2023/10/31 00:16:56;;;;;;;7.10;4.77;;;13.60;99.90;;;;;;5171194;22;20417;-64
2023/10/31 00:19:22;;;;;;;6.43;4.90;;;13.60;99.90;;;;;;5094967;28;20481;-65
2023/10/31 00:21:49;;;;;;;7.70;4.40;;;13.60;99.90;;;;;;5095996;28;20497;-67
2023/10/31 00:24:18;;;;;;;11.73;5.10;;;13.60;99.90;;;;;;5096237;28;20442;-67
2023/10/31 00:26:44;;;;;;;9.40;5.80;;;13.60;99.90;;;;;;5096937;28;20497;-66
2023/10/31 00:29:11;;;;;;;7.50;5.20;;;13.60;99.90;;;;;;5106041;28;20501;-65
2023/10/31 00:31:40;;;;;;;6.17;4.70;;;13.60;99.90;;;;;;5108149;28;20457;-66
2023/10/31 00:34:08;;;;;;;6.23;4.50;;;13.60;99.90;;;;;;5113755;28;20480;-65
2023/10/31 00:36:34;;;;;;;8.53;4.03;;;13.60;99.90;;;;;;5114548;28;20965;-61
2023/10/31 00:39:01;;;;;;;9.30;5.70;;;13.60;99.90;;;;;;5114602;28;20453;-63
2023/10/31 00:41:30;;;;;;;15.40;4.57;;;13.60;99.90;;;;;;5114947;28;20477;-64
2023/10/31 00:43:57;;;;;;;7.60;4.43;;;13.60;99.90;;;;;;5114899;28;20461;-63
2023/10/31 00:46:23;;;;;;;7.67;4.23;;;13.60;99.90;;;;;;5114847;28;20469;-63
2023/10/31 00:48:50;;;;;;;5.03;3.57;;;13.50;99.90;;;;;;5114439;28;20433;-64
2023/10/31 00:51:17;;;;;;;5.90;4.10;;;13.50;99.90;;;;;;5114440;28;20450;-64
2023/10/31 00:53:44;;;;;;;7.87;4.33;;;13.50;99.90;;;;;;5114015;28;20469;-61
2023/10/31 00:56:11;;;;;;;5.90;4.20;;;13.50;99.90;;;;;;5112773;28;20476;-62
2023/10/31 00:58:39;;;;;;;4.83;3.93;;;13.50;99.90;;;;;;5114221;28;20441;-62
2023/10/31 01:01:06;;;;;;;8.60;4.33;;;13.50;99.90;;;;;;5113962;28;20481;-61
2023/10/31 01:03:36;;;;;;;6.47;4.40;;;13.50;99.90;;;;;;5114147;28;20433;-68
2023/10/31 01:06:02;;;;;;;6.37;3.90;;;13.50;99.90;;;;;;5114544;28;20433;-65
2023/10/31 01:08:29;;;;;;;11.97;4.63;;;13.50;99.90;;;;;;5114414;28;20499;-62
2023/10/31 01:10:58;;;;;;;6.87;4.40;;;13.50;99.90;;;;;;5114419;28;20449;-65
2023/10/31 01:13:25;;;;;;;6.23;4.90;;;13.50;99.90;;;;;;5103645;28;20461;-69
2023/10/31 01:15:53;;;;;;;6.50;4.40;;;13.50;99.90;;;;;;5093984;28;20429;-65
2023/10/31 01:18:21;;;;;;;5.67;3.73;;;13.50;99.90;;;;;;5093875;28;20462;-64
2023/10/31 01:20:48;;;;;;;9.30;4.53;;;13.50;99.90;;;;;;5093320;28;20490;-66
2023/10/31 01:23:14;;;;;;;6.43;4.60;;;13.50;99.90;;;;;;5078708;28;20474;-66
2023/10/31 01:25:41;;;;;;;8.30;5.27;;;13.50;99.90;;;;;;5074541;28;20442;-65
2023/10/31 01:28:08;;;;;;;7.70;5.57;;;13.50;99.90;;;;;;5074613;28;20956;-64
2023/10/31 01:30:35;;;;;;;5.80;4.70;;;13.50;99.90;;;;;;5074979;28;20918;-67
2023/10/31 01:33:04;;;;;;;10.73;4.83;;;13.50;99.90;;;;;;5074648;28;20476;-65
2023/10/31 01:35:30;;;;;;;5.90;4.90;;;13.40;99.90;;;;;;5075536;28;20481;-66
2023/10/31 01:37:57;;;;;;;8.00;3.87;;;13.40;99.90;;;;;;5076354;28;20964;-65
2023/10/31 01:40:24;;;;;;;7.03;4.83;;;13.40;99.90;;;;;;5075323;28;20531;-66
2023/10/31 01:42:51;;;;;;;10.13;5.80;;;13.30;99.90;;;;;;5080343;28;20504;-66
2023/10/31 01:45:18;;;;;;;8.10;5.40;;;13.30;99.90;;;;;;5094472;28;20522;-69
2023/10/31 01:47:49;;;;;;;11.20;5.47;;;13.30;99.90;;;;;;5094795;28;20441;-70
2023/10/31 01:50:18;;;;;;;5.97;5.10;;;13.30;99.90;;;;;;5094762;28;20482;-67
2023/10/31 01:52:46;;;;;;;8.73;5.00;;;13.30;99.90;;;;;;5094168;28;20453;-65
2023/10/31 01:55:13;;;;;;;9.47;6.30;;;13.30;99.90;;;;;;5094270;28;20457;-66
2023/10/31 01:57:41;;;;;;;8.63;4.73;;;13.30;99.90;;;;;;5094810;28;20445;-66
2023/10/31 02:00:09;;;;;;;10.80;4.40;;;13.40;99.90;;;;;;5094917;28;20512;-67
2023/10/31 02:02:38;;;;;;;6.63;5.90;;;13.30;99.90;;;;;;5096410;28;20477;-66
2023/10/31 02:05:06;;;;;;;8.27;5.00;;;13.30;99.90;;;;;;5097472;28;20893;-63
2023/10/31 02:07:34;;;;;;;7.07;4.70;;;13.20;99.90;;;;;;5101012;28;20465;-67
2023/10/31 02:10:01;;;;;;;10.83;4.10;;;13.20;99.90;;;;;;5104554;28;20469;-66
2023/10/31 02:12:35;;;;;;;7.93;4.60;;;13.20;99.90;;;;;;5104332;28;20464;-68
2023/10/31 02:15:03;;;;;;;8.23;5.37;;;13.20;99.90;;;;;;5104871;28;20477;-65
2023/10/31 02:17:30;;;;;;;8.73;5.37;;;13.20;99.90;;;;;;5104030;28;20526;-66
2023/10/31 02:19:57;;;;;;;8.60;6.33;;;13.20;99.90;;;;;;5104892;28;20490;-62
2023/10/31 02:22:26;;;;;;;5.40;4.40;;;13.20;99.90;;;;;;5104849;28;20469;-67
2023/10/31 02:24:52;;;;;;;8.60;5.10;;;13.20;99.90;;;;;;5103754;28;20442;-67
2023/10/31 02:27:19;;;;;;;15.33;5.10;;;13.20;99.90;;;;;;5095680;28;20598;-66
2023/10/31 02:29:46;;;;;;;8.73;6.00;;;13.20;99.90;;;;;;5093885;28;20441;-67
2023/10/31 02:32:13;;;;;;;8.43;5.93;;;13.10;99.90;;;;;;5093809;28;20433;-66
2023/10/31 02:34:40;;;;;;;10.43;5.40;;;13.20;99.90;;;;;;5093796;28;20886;-63
2023/10/31 02:37:07;;;;;;;9.23;5.70;;;13.20;99.90;;;;;;5094117;28;20957;-66
2023/10/31 02:39:37;;;;;;;9.90;6.13;;;13.20;99.90;;;;;;5093683;28;20551;-67
2023/10/31 02:42:04;;;;;;;10.40;5.20;;;13.10;99.90;;;;;;5094099;28;20481;-66
2023/10/31 02:44:31;;;;;;;9.13;5.60;;;13.10;99.90;;;;;;5076075;28;20528;-69
2023/10/31 02:46:58;;;;;;;8.13;6.10;;;13.10;99.90;;;;;;5093919;28;20545;-67
2023/10/31 02:49:25;;;;;;;15.03;5.90;;;13.10;99.90;;;;;;5093878;28;20981;-66
2023/10/31 02:51:52;;;;;;;13.93;6.43;;;13.00;99.90;;;;;;5093893;28;20499;-68
2023/10/31 02:54:18;;;;;;;10.60;5.50;;;13.00;99.90;;;;;;5093494;28;20568;-66
2023/10/31 02:56:47;;;;;;;11.70;4.87;;;13.00;99.90;;;;;;5076809;28;20482;-69
2023/10/31 02:59:14;;;;;;;10.50;5.70;;;13.00;99.90;;;;;;5098593;28;20449;-57
2023/10/31 03:01:42;;;;;;;8.13;5.33;;;13.00;99.90;;;;;;5101230;28;20474;-54
2023/10/31 03:04:10;;;;;;;10.03;5.47;;;13.00;99.90;;;;;;5101333;28;20402;-56
2023/10/31 03:06:38;;;;;;;12.23;5.30;;;13.00;99.90;;;;;;5101029;28;20457;-58
2023/10/31 03:09:05;;;;;;;7.17;4.90;;;13.00;99.90;;;;;;5101061;28;20441;-56
2023/10/31 03:11:32;;;;;;;8.13;5.77;;;13.00;99.90;;;;;;5101094;28;20437;-57
2023/10/31 03:14:00;;;;;;;12.23;6.30;;;13.00;99.90;;;;;;5116122;28;20436;-58
2023/10/31 03:16:27;;;;;;;10.03;5.23;;;13.00;99.90;;;;;;5121212;28;20425;-61
2023/10/31 03:18:54;;;;;;;6.43;5.27;;;13.00;99.90;;;;;;5120882;28;20460;-58
2023/10/31 03:21:21;;;;;;;8.43;5.10;;;13.00;99.90;;;;;;5121000;28;20461;-60
2023/10/31 03:23:49;;;;;;;14.07;6.27;;;13.00;99.90;;;;;;5120040;28;20460;-66
2023/10/31 03:26:17;;;;;;;9.53;5.47;;;12.90;99.90;;;;;;5118830;28;20468;-65
2023/10/31 03:28:44;;;;;;;10.00;6.47;;;12.90;99.90;;;;;;5118490;28;20430;-64
2023/10/31 03:31:13;;;;;;;8.30;6.20;;;12.90;99.90;;;;;;5118555;28;20453;-66
2023/10/31 03:33:40;;;;;;;7.30;5.80;;;12.90;99.90;;;;;;5118399;28;20457;-67
2023/10/31 03:36:08;;;;;;;8.40;6.60;;;12.90;99.90;;;;;;5118728;28;20441;-67
2023/10/31 03:38:35;;;;;;;10.00;7.00;;;12.90;99.90;;;;;;5117903;28;20441;-64
2023/10/31 03:41:02;;;;;;;11.20;6.53;;;12.90;99.90;;;;;;5117063;28;20467;-63
2023/10/31 03:43:32;;;;;;;10.27;6.90;;;12.90;99.90;;;;;;5116988;28;20453;-63
2023/10/31 03:46:01;;;;;;;10.17;7.00;;;12.90;99.90;;;;;;5117041;28;20422;-64
2023/10/31 03:48:29;;;;;;;8.23;5.73;;;12.90;99.90;;;;;;5117337;28;20465;-66
2023/10/31 03:50:56;;;;;;;8.53;6.43;;;12.90;99.90;;;;;;5117552;28;20441;-66
2023/10/31 03:53:23;;;;;;;6.10;5.10;;;12.90;99.90;;;;;;5113796;28;20472;-67
2023/10/31 03:55:50;;;;;;;8.93;6.10;;;12.90;99.90;;;;;;5109137;28;20453;-68
2023/10/31 03:58:16;;;;;;;7.93;6.27;;;12.90;99.90;;;;;;5108588;28;20493;-67
2023/10/31 04:00:43;;;;;;;7.80;5.73;;;12.90;99.90;;;;;;5107920;28;20751;-63
2023/10/31 04:03:10;;;;;;;6.33;5.70;;;12.90;99.90;;;;;;5107588;28;20481;-65
2023/10/31 04:05:38;;;;;;;7.30;5.97;;;12.90;99.90;;;;;;5101852;28;20545;-66
2023/10/31 04:08:05;;;;;;;10.00;5.50;;;12.90;99.90;;;;;;5106495;28;20477;-66
2023/10/31 04:10:32;;;;;;;7.20;5.40;;;12.90;99.90;;;;;;5101665;28;20889;-67
2023/10/31 04:12:59;;;;;;;10.17;4.87;;;12.90;99.90;;;;;;5099991;28;20476;-67
2023/10/31 04:15:26;;;;;;;7.67;5.93;;;12.90;99.90;;;;;;5099319;28;20930;-66
2023/10/31 04:17:53;;;;;;;6.17;4.70;;;12.90;99.90;;;;;;5106697;28;20504;-66
2023/10/31 04:20:22;;;;;;;7.00;5.00;;;12.90;99.90;;;;;;5101545;28;20438;-64
2023/10/31 04:22:51;;;;;;;13.60;6.57;;;12.90;99.90;;;;;;5103870;28;20477;-67
2023/10/31 04:25:17;;;;;;;7.50;5.67;;;12.90;99.90;;;;;;5108549;28;20476;-66
2023/10/31 04:27:44;;;;;;;6.63;5.17;;;12.90;99.90;;;;;;5108634;28;20448;-68
2023/10/31 04:30:12;;;;;;;6.17;5.40;;;12.80;99.90;;;;;;5109430;28;20465;-65
2023/10/31 04:32:39;;;;;;;7.90;5.13;;;12.80;99.90;;;;;;5109314;28;20438;-67
2023/10/31 04:35:06;;;;;;;6.83;6.13;;;12.80;99.90;;;;;;5109575;28;20470;-68
2023/10/31 04:37:33;;;;;;;9.70;6.07;;;12.70;99.90;;;;;;5106943;28;20913;-69
2023/10/31 04:40:02;;;;;;;7.73;5.80;;;12.70;99.90;;;;;;5096921;28;20533;-64
2023/10/31 04:42:29;;;;;;;8.90;6.33;;;12.70;99.90;;;;;;5099542;28;20864;-66
2023/10/31 04:44:56;;;;;;;7.10;6.40;;;12.60;99.90;;;;;;5101763;28;20478;-67
2023/10/31 04:47:23;;;;;;;7.53;5.60;;;12.70;99.90;;;;;;5109866;28;20437;-69
2023/10/31 04:49:50;;;;;;;7.23;5.50;;;12.60;99.90;;;;;;5110911;28;20522;-68
2023/10/31 04:52:22;;;;;;;17.93;6.50;;;12.60;99.90;;;;;;5110355;28;20449;-66
2023/10/31 04:54:49;;;;;;;8.07;6.27;;;12.60;99.90;;;;;;5110016;28;20476;-65
2023/10/31 04:57:17;;;;;;;9.27;6.70;;;12.60;99.90;;;;;;5090874;28;20465;-69
2023/10/31 04:59:47;;;;;;;7.67;5.60;;;12.60;99.90;;;;;;5090213;28;20447;-70
2023/10/31 05:02:14;;;;;;;6.97;5.70;;;12.60;99.90;;;;;;5077747;28;20536;-68
2023/10/31 05:04:41;;;;;;;14.63;6.50;;;12.70;99.90;;;;;;5080751;28;20786;-67
2023/10/31 05:07:08;;;;;;;8.53;6.17;;;12.70;99.90;;;;;;5080058;28;20546;-66
2023/10/31 05:09:35;;;;;;;8.50;6.90;;;12.70;99.90;;;;;;5080494;28;20442;-70
2023/10/31 05:12:02;;;;;;;10.00;6.27;;;12.80;99.90;;;;;;5081215;28;20477;-67
2023/10/31 05:14:30;;;;;;;8.90;6.60;;;12.80;99.90;;;;;;5099954;28;20465;-64
2023/10/31 05:16:57;;;;;;;8.33;6.53;;;12.70;99.90;;;;;;5104886;28;20465;-64
2023/10/31 05:19:24;;;;;;;9.60;6.53;;;12.70;99.90;;;;;;5108347;28;20495;-60
2023/10/31 05:21:51;;;;;;;10.73;6.77;;;12.70;99.90;;;;;;5108101;28;20481;-67
2023/10/31 05:24:18;;;;;;;12.20;8.20;;;12.80;99.90;;;;;;5104616;28;20530;-64
2023/10/31 05:26:45;;;;;;;9.60;6.80;;;12.80;99.90;;;;;;5096501;28;20497;-66
2023/10/31 05:29:14;;;;;;;8.23;6.23;;;12.80;99.90;;;;;;5096320;28;20532;-67
2023/10/31 05:31:45;;;;;;;10.13;6.47;;;12.80;99.90;;;;;;5100016;28;20548;-65
2023/10/31 05:34:12;;;;;;;9.37;6.83;;;12.80;99.90;;;;;;5109078;28;20482;-70
2023/10/31 05:36:39;;;;;;;8.17;6.53;;;12.80;99.90;;;;;;5108803;28;20458;-65
2023/10/31 05:39:06;;;;;;;9.30;6.23;;;12.90;99.90;;;;;;5108446;28;20465;-64
2023/10/31 05:41:36;;;;;;;11.00;6.70;;;12.90;99.90;;;;;;5108659;28;20469;-66
2023/10/31 05:44:03;;;;;;;9.27;6.90;;;12.90;99.90;;;;;;5109004;28;20462;-66
2023/10/31 05:46:30;;;;;;;8.40;6.83;;;12.90;99.90;;;;;;5108904;28;20525;-64
2023/10/31 05:48:58;;;;;;;10.77;7.30;;;12.90;99.90;;;;;;5110965;28;20433;-66
2023/10/31 05:51:26;;;;;;;7.93;6.30;;;13.00;99.90;;;;;;5108239;28;20449;-65
2023/10/31 05:53:53;;;;;;;11.97;6.20;;;13.00;99.90;;;;;;5108359;28;20452;-64
2023/10/31 05:56:20;;;;;;;7.60;6.20;;;13.00;99.90;;;;;;5108078;28;20512;-67
2023/10/31 05:58:49;;;;;;;7.27;5.13;;;13.00;99.90;;;;;;5108395;28;20445;-67
2023/10/31 06:01:19;;;;;;;5.13;4.63;;;13.00;99.90;;;;;;5108215;28;20446;-65
2023/10/31 06:03:46;;;;;;;7.90;5.37;;;13.00;99.90;;;;;;5107298;28;20542;-59
2023/10/31 06:06:14;;;;;;;5.43;4.10;;;13.00;99.90;;;;;;5108191;28;20441;-67
2023/10/31 06:08:42;;;;;;;6.10;5.23;;;13.00;99.90;;;;;;5108426;28;20992;-66
2023/10/31 06:11:12;;;;;;;5.70;4.30;;;13.00;99.90;;;;;;5108470;28;20442;-68
2023/10/31 06:13:39;;;;;;;4.73;4.10;;;13.10;99.90;;;;;;5108362;28;20509;-66
2023/10/31 06:16:07;;;;;;;8.00;5.70;;;13.10;99.90;;;;;;5107856;28;20466;-67
2023/10/31 06:18:34;;;;;;;7.70;4.77;;;13.10;99.90;;;;;;5108081;28;20496;-64
2023/10/31 06:21:01;;;;;;;6.30;5.20;;;13.10;99.90;;;;;;5107464;28;20501;-64
2023/10/31 06:23:29;;;;;;;6.60;5.30;;;13.10;99.90;;;;;;5107862;28;20499;-63
2023/10/31 06:25:56;;;;;;;7.90;5.30;;;13.10;99.90;;;;;;5107333;28;20449;-67
2023/10/31 06:28:24;;;;;;;5.77;4.97;;;13.20;99.90;;;;;;5107334;28;20504;-66
2023/10/31 06:30:51;;;;;;;7.97;4.67;;;13.20;99.90;;;;;;5107800;28;20441;-68
2023/10/31 06:33:18;;;;;;;5.03;4.23;;;13.20;99.90;;;;;;5113058;28;20470;-67
2023/10/31 06:35:45;;;;;;;9.00;5.03;;;13.20;99.90;;;;;;5111736;28;20476;-67
2023/10/31 06:38:13;;;;;;;5.30;4.47;;;13.20;99.90;;;;;;5110917;28;20465;-67
2023/10/31 06:40:41;;;;;;;5.40;4.77;;;13.20;99.90;;;;;;5109197;28;20834;-68
2023/10/31 06:43:08;;;;;;;8.13;4.60;;;13.20;99.90;;;;;;5102081;28;20510;-67
2023/10/31 06:45:34;;;;;;;6.27;4.83;;;13.20;99.90;;;;;;5089432;28;20445;-66
2023/10/31 06:48:01;;;;;;;4.83;4.20;;;13.20;99.90;;;;;;5090220;28;20454;-66
2023/10/31 06:50:28;;;;;;;7.50;5.10;;;13.30;99.90;;;;;;5082643;28;20534;-68
2023/10/31 06:52:55;;;;;;;4.63;4.00;;;13.30;99.90;;;;;;5088782;28;20476;-67
2023/10/31 06:55:22;;;;;;;5.80;4.67;;;13.30;99.90;;;;;;5091455;28;20449;-66
2023/10/31 06:57:50;;;;;;;5.10;4.40;;;13.30;99.90;;;;;;5092142;28;20450;-67
2023/10/31 07:00:18;;;;;;;5.33;4.70;;;13.30;99.90;;;;;;5091024;28;20435;-67
2023/10/31 07:02:45;;;;;;;6.10;4.60;;;13.30;99.90;;;;;;5090492;28;20478;-66
2023/10/31 07:05:15;;;;;;;4.30;3.90;;;13.30;99.90;;;;;;5090355;28;20466;-64
2023/10/31 07:07:42;;;;;;;4.90;3.33;;;13.30;99.90;;;;;;5091781;28;20529;-65
2023/10/31 07:10:09;;;;;;;4.50;3.20;;;13.40;99.90;;;;;;5090155;28;20446;-65
2023/10/31 07:12:36;;;;;;;5.03;3.83;;;13.40;99.90;;;;;;5093883;28;20473;-64
2023/10/31 07:15:05;;;;;;;4.80;3.07;;;13.40;99.90;;;;;;5109971;28;20456;-68
2023/10/31 07:17:34;;;;;;;3.40;3.10;;;13.40;99.90;;;;;;5110044;28;20477;-66
2023/10/31 07:20:01;;;;;;;3.77;2.90;;;13.50;99.90;;;;;;5110166;28;20463;-67
2023/10/31 07:22:28;;;;;;;4.27;3.47;;;13.50;99.90;;;;;;5109951;28;20510;-66
2023/10/31 07:24:54;;;;;;;3.90;3.47;;;13.50;99.90;;;;;;5111025;28;20441;-69
2023/10/31 07:27:21;;;;;;;3.80;2.87;;;13.50;99.90;;;;;;5106166;28;20445;-67
2023/10/31 07:29:49;;;;;;;3.73;2.77;;;13.50;99.90;;;;;;5101333;28;20473;-70
2023/10/31 07:32:17;;;;;;;3.47;2.70;;;13.40;99.90;;;;;;5101880;28;20442;-69
2023/10/31 07:34:46;;;;;;;4.93;2.53;;;13.40;99.90;;;;;;5101297;28;20788;-66
2023/10/31 07:37:13;;;;;;;3.27;2.70;;;13.30;99.90;;;;;;5100338;28;20437;-68
2023/10/31 07:39:40;;;;;;;2.27;1.60;;;13.30;99.90;;;;;;5102681;28;20512;-68
2023/10/31 07:42:07;;;;;;;2.73;2.10;;;13.20;99.90;;;;;;5102950;28;20449;-63
2023/10/31 07:44:34;;;;;;;2.40;2.20;;;13.20;99.90;;;;;;5096565;28;20514;-67
2023/10/31 07:47:01;;;;;;;1.90;1.70;;;13.10;99.90;;;;;;5103173;28;20445;-70
2023/10/31 07:49:29;;;;;;;3.50;2.17;;;13.10;99.90;;;;;;5102986;28;20438;-67
2023/10/31 07:51:57;;;;;;;3.47;2.70;;;13.00;99.90;;;;;;5102552;28;20488;-68
2023/10/31 07:54:24;;;;;;;2.13;1.33;;;12.90;99.90;;;;;;5103319;28;20434;-71
2023/10/31 07:56:51;;;;;;;1.47;1.37;;;12.90;99.90;;;;;;5103175;28;20461;-66
2023/10/31 07:59:18;;;;;;;1.93;1.20;;;12.80;99.90;;;;;;5103475;28;20485;-70
2023/10/31 08:01:45;;;;;;;1.60;1.50;;;12.80;99.90;;;;;;5102187;28;20501;-68
2023/10/31 08:04:12;;;;;;;1.30;1.10;;;12.70;99.90;;;;;;5103285;28;20465;-68
2023/10/31 08:06:40;;;;;;;1.57;1.47;;;12.60;99.90;;;;;;5104222;28;20453;-69
2023/10/31 08:09:07;;;;;;;1.17;1.07;;;12.60;99.90;;;;;;5112624;28;20491;-68
2023/10/31 08:11:35;;;;;;;1.97;1.53;;;12.70;99.90;;;;;;5098021;28;20453;-67
2023/10/31 08:14:02;;;;;;;1.40;1.30;;;12.70;99.90;;;;;;5110718;28;20449;-68
2023/10/31 08:16:32;;;;;;;2.47;1.10;;;12.70;99.90;;;;;;5114184;28;20473;-67
2023/10/31 08:18:59;;;;;;;1.23;1.13;;;12.70;99.90;;;;;;5113143;28;20450;-66
2023/10/31 08:21:28;;;;;;;3.70;1.43;;;12.70;99.90;;;;;;5113192;28;20472;-68
2023/10/31 08:23:56;;;;;;;1.97;1.83;;;12.70;99.90;;;;;;5111911;28;20489;-68
2023/10/31 08:26:23;;;;;;;1.33;1.20;;;12.70;99.90;;;;;;5111396;28;20457;-67
2023/10/31 08:28:52;;;;;;;1.20;0.90;;;12.80;99.90;;;;;;5111091;28;20535;-67
2023/10/31 08:31:20;;;;;;;1.63;1.27;;;12.80;99.90;;;;;;5110884;28;20437;-66
2023/10/31 08:33:47;;;;;;;1.20;1.10;;;12.90;99.90;;;;;;5111161;28;20465;-67
2023/10/31 08:36:14;;;;;;;1.50;1.10;;;12.90;99.90;;;;;;5112906;28;20480;-66
2023/10/31 08:38:41;;;;;;;1.30;1.10;;;12.90;99.90;;;;;;5113461;28;20481;-61
2023/10/31 08:41:09;;;;;;;3.77;1.60;;;13.00;99.90;;;;;;5105101;28;20501;-69
2023/10/31 08:43:36;;;;;;;2.00;1.23;;;13.10;99.90;;;;;;5097127;28;20479;-70
2023/10/31 08:46:03;;;;;;;2.07;1.37;;;13.20;99.90;;;;;;5089798;28;20468;-67
2023/10/31 08:48:30;;;;;;;1.67;1.00;;;13.30;99.90;;;;;;5103017;28;20548;-70
2023/10/31 08:50:57;;;;;;;1.73;1.10;;;13.40;99.90;;;;;;5092849;28;20478;-69
2023/10/31 08:53:24;;;;;;;1.30;0.90;;;13.40;99.90;;;;;;5107283;28;21159;-68
2023/10/31 08:55:51;;;;;;;1.03;0.83;;;13.40;99.90;;;;;;5105713;28;20424;-68
2023/10/31 08:58:19;;;;;;;2.57;1.10;;;13.30;99.90;;;;;;5108414;28;20446;-69
2023/10/31 09:00:46;;;;;;;1.10;0.80;;;13.30;99.90;;;;;;5104953;28;20929;-67
2023/10/31 09:03:13;;;;;;;1.27;0.90;;;13.30;99.90;;;;;;5090119;28;20543;-69
2023/10/31 09:05:42;;;;;;;1.93;0.90;;;13.20;99.90;;;;;;5090190;28;20462;-68
2023/10/31 09:08:10;;;;;;;1.50;1.20;;;13.20;99.90;;;;;;5104775;28;20473;-66
2023/10/31 09:10:38;;;;;;;1.40;0.83;;;13.10;99.90;;;;;;5109794;28;20555;-70
2023/10/31 09:13:07;;;;;;;4.20;1.37;;;13.10;99.90;;;;;;5109469;28;20521;-66
2023/10/31 09:15:35;;;;;;;1.47;0.80;;;13.10;99.90;;;;;;5107736;28;20856;-59
2023/10/31 09:18:03;;;;;;;1.10;0.80;;;13.10;99.90;;;;;;5100349;28;20466;-69
2023/10/31 09:20:30;;;;;;;1.00;0.80;;;13.20;99.90;;;;;;5109600;28;20580;-66
2023/10/31 09:22:57;;;;;;;1.10;0.87;;;13.10;99.90;;;;;;5113093;28;20676;-68
2023/10/31 09:25:33;;;;;;;1.10;0.97;;;13.30;99.90;;;;;;5111946;28;20499;-51
2023/10/31 09:28:00;;;;;;;1.70;0.90;;;13.80;99.90;;;;;;5091480;28;20423;-69
2023/10/31 09:30:26;;;;;;;1.67;1.17;;;14.20;99.90;;;;;;5097123;28;20502;-65
2023/10/31 09:32:55;;;;;;;1.87;1.03;;;14.30;99.90;;;;;;5110566;28;20472;-63
2023/10/31 09:35:22;;;;;;;1.23;0.80;;;14.40;99.90;;;;;;5109442;28;20465;-69
2023/10/31 09:37:49;;;;;;;1.20;0.90;;;14.20;99.90;;;;;;5105992;28;20464;-68
2023/10/31 09:40:16;;;;;;;1.17;0.80;;;14.10;99.90;;;;;;5102321;28;20477;-67
2023/10/31 09:42:45;;;;;;;1.43;1.10;;;13.80;99.90;;;;;;5099232;28;20426;-68
2023/10/31 09:45:12;;;;;;;1.50;1.20;;;13.70;99.90;;;;;;5096527;28;20450;-66
2023/10/31 09:47:40;;;;;;;1.20;1.10;;;13.70;99.90;;;;;;5078036;28;20461;-66
2023/10/31 09:50:09;;;;;;;1.10;0.90;;;13.60;99.90;;;;;;5084945;28;20532;-72
2023/10/31 09:52:37;;;;;;;1.20;1.03;;;13.60;99.90;;;;;;5100268;28;20461;-68
2023/10/31 09:55:06;;;;;;;4.60;1.37;;;13.60;99.90;;;;;;5100979;28;20442;-68
2023/10/31 09:57:33;;;;;;;1.20;1.10;;;13.60;99.90;;;;;;5103825;28;20491;-62
2023/10/31 10:00:01;;;;;;;1.20;1.10;;;13.60;99.90;;;;;;5098282;28;20486;-68
2023/10/31 10:02:30;;;;;;;3.93;1.50;;;13.80;99.90;;;;;;5089150;28;20474;-68
2023/10/31 10:04:58;;;;;;;1.10;1.00;;;13.90;99.90;;;;;;5087511;28;20474;-71
2023/10/31 10:07:26;;;;;;;1.47;1.17;;;14.00;99.90;;;;;;5098936;28;20491;-66
2023/10/31 10:09:53;;;;;;;1.63;1.30;;;14.00;99.90;;;;;;5108230;28;20491;-69
2023/10/31 10:12:20;;;;;;;1.20;1.00;;;14.00;99.90;;;;;;5100992;28;20504;-69
2023/10/31 10:14:47;;;;;;;1.40;1.13;;;14.00;99.90;;;;;;5095087;28;20467;-70
2023/10/31 10:17:18;;;;;;;1.60;1.10;;;14.00;99.90;;;;;;5087588;28;20550;-70
2023/10/31 10:19:45;;;;;;;1.30;1.13;;;14.00;99.90;;;;;;5104066;28;20483;-69
2023/10/31 10:22:14;;;;;;;1.40;1.17;;;14.10;99.90;;;;;;5105835;28;20473;-69
2023/10/31 10:24:43;;;;;;;1.70;1.20;;;14.20;99.90;;;;;;5108019;28;20492;-63
2023/10/31 10:27:09;;;;;;;5.20;1.43;;;14.20;99.90;;;;;;5106318;28;20457;-67
2023/10/31 10:29:36;;;;;;;1.97;1.33;;;14.10;99.90;;;;;;5106824;28;20521;-68
2023/10/31 10:32:08;;;;;;;2.27;1.30;;;14.10;99.90;;;;;;5105852;28;20521;-68
2023/10/31 10:34:36;;;;;;;1.30;1.17;;;14.10;99.90;;;;;;5106779;28;20421;-71
2023/10/31 10:37:05;;;;;;;1.67;1.10;;;14.10;99.90;;;;;;5105817;28;20458;-67
2023/10/31 10:39:39;;;;;;;1.70;1.13;;;14.30;99.90;;;;;;5097235;28;20493;-64
2023/10/31 10:42:12;;;;;;;3.20;1.60;;;14.40;99.90;;;;;;5104915;28;20468;-69
2023/10/31 10:44:47;;;;;;;4.10;1.40;;;14.40;99.90;;;;;;5106123;28;20535;-67
2023/10/31 10:47:15;;;;;;;1.67;1.33;;;14.40;99.90;;;;;;5107651;28;20436;-70
2023/10/31 10:49:45;;;;;;;4.33;1.60;;;14.40;99.90;;;;;;5107563;28;21011;-66
2023/10/31 10:52:19;;;;;;;1.30;1.13;;;14.40;99.90;;;;;;5108032;28;20441;-69
2023/10/31 10:54:53;;;;;;;1.67;1.27;;;14.30;99.90;;;;;;5107765;28;20464;-73
2023/10/31 10:57:31;;;;;;;2.40;1.42;;;14.30;99.90;;;;;;5107796;28;20452;-64
2023/10/31 11:00:04;;;;;;;1.67;1.57;;;14.50;99.90;;;;;;5111356;28;20219;-65
2023/10/31 11:02:33;;;;;;;1.73;1.33;;;14.60;99.90;;;;;;5105063;28;20457;-54
2023/10/31 11:05:01;;;;;;;6.13;1.87;;;14.50;99.90;;;;;;5095580;28;20587;-68
2023/10/31 11:07:30;;;;;;;1.83;1.70;;;14.50;99.90;;;;;;5105555;28;20457;-64
2023/10/31 11:10:02;;;;;;;1.50;1.40;;;14.50;99.90;;;;;;5104151;28;20469;-64
2023/10/31 11:12:31;;;;;;;2.20;1.93;;;14.60;99.90;;;;;;5107425;28;20792;-62
2023/10/31 11:14:58;;;;;;;2.20;1.90;;;14.40;99.90;;;;;;5114056;28;20485;-64
2023/10/31 11:17:28;;;;;;;4.93;3.13;;;14.30;99.90;;;;;;5114054;28;20445;-69
2023/10/31 11:19:57;;;;;;;3.20;1.57;;;14.30;99.90;;;;;;5116761;28;20445;-64
2023/10/31 11:22:24;;;;;;;2.60;2.17;;;14.30;99.90;;;;;;5116679;28;20829;-69
2023/10/31 11:24:52;;;;;;;2.97;1.63;;;14.30;99.90;;;;;;5097451;28;20481;-65
2023/10/31 11:27:19;;;;;;;2.03;1.87;;;14.30;99.90;;;;;;5097633;28;20480;-65
2023/10/31 11:29:49;;;;;;;2.87;1.90;;;14.20;99.90;;;;;;5095687;28;20544;-68
2023/10/31 11:32:16;;;;;;;1.70;1.53;;;14.20;99.90;;;;;;5088232;28;20541;-69
2023/10/31 11:34:44;;;;;;;1.27;1.17;;;14.10;99.90;;;;;;5079225;28;20430;-71
2023/10/31 11:37:25;;;;;;;3.00;1.80;;;14.10;99.90;;;;;;5091311;28;20450;-68
2023/10/31 11:40:18;;;;;;;2.80;1.63;;;14.00;99.90;;;;;;5096546;28;20480;-67
2023/10/31 11:42:48;;;;;;;1.70;1.50;;;14.00;99.90;;;;;;5106668;28;20483;-58
2023/10/31 11:45:29;;;;;;;1.83;1.30;;;13.90;99.90;;;;;;5079347;28;20504;-68
2023/10/31 11:47:56;;;;;;;1.80;1.23;;;13.90;99.90;;;;;;5091508;28;20481;-66
2023/10/31 11:50:24;;;;;;;1.77;1.50;;;13.80;99.90;;;;;;5112734;28;20445;-65
2023/10/31 11:53:05;;;;;;;1.77;1.50;;;13.80;99.90;;;;;;5112204;28;20484;-60
2023/10/31 11:55:37;;;;;;;2.50;1.37;;;13.70;99.90;;;;;;5111862;28;20433;-62
2023/10/31 11:58:17;;;;;;;1.50;1.30;;;13.70;99.90;;;;;;5111896;28;20426;-66
2023/10/31 12:00:47;;;;;;;1.90;1.40;;;13.80;99.90;;;;;;5112102;28;20449;-63
2023/10/31 12:03:16;;;;;;;1.80;1.23;;;14.00;99.90;;;;;;5115369;28;20449;-64
2023/10/31 12:05:52;;;;;;;3.27;1.70;;;13.90;99.90;;;;;;5115443;28;20481;-63
2023/10/31 12:08:27;;;;;;;3.93;1.37;;;13.90;99.90;;;;;;5117244;28;20432;-63
2023/10/31 12:10:54;;;;;;;2.80;1.30;;;13.80;99.90;;;;;;5117917;28;20510;-63
2023/10/31 12:13:21;;;;;;;1.40;1.10;;;13.80;99.90;;;;;;5117629;28;20465;-61
2023/10/31 12:15:55;;;;;;;1.77;1.13;;;13.80;99.90;;;;;;5117241;28;20448;-60
2023/10/31 12:18:22;;;;;;;6.53;1.43;;;13.80;99.90;;;;;;5117207;28;20475;-64
2023/10/31 12:20:50;;;;;;;1.37;1.10;;;13.80;99.90;;;;;;5098946;28;20530;-64
2023/10/31 12:23:18;;;;;;;1.10;0.90;;;13.70;99.90;;;;;;5096385;28;20446;-64
2023/10/31 12:25:49;;;;;;;1.20;1.00;;;13.70;99.90;;;;;;5109658;28;20484;-65
2023/10/31 12:28:19;;;;;;;1.30;0.93;;;13.70;99.90;;;;;;5112159;28;20409;-63
2023/10/31 12:30:47;;;;;;;1.67;1.00;;;13.60;99.90;;;;;;5112585;28;20457;-63
2023/10/31 12:33:16;;;;;;;1.20;1.00;;;13.50;99.90;;;;;;5116214;28;20461;-62
2023/10/31 12:35:44;;;;;;;2.40;1.00;;;13.50;99.90;;;;;;5116900;28;20442;-62
2023/10/31 12:38:12;;;;;;;1.00;0.80;;;13.50;99.90;;;;;;5117055;28;20429;-62
2023/10/31 12:40:41;;;;;;;1.20;1.00;;;13.60;99.90;;;;;;5117147;28;20465;-63
2023/10/31 12:43:09;;;;;;;1.10;0.77;;;13.60;99.90;;;;;;5117166;28;20452;-65
2023/10/31 12:45:37;;;;;;;1.43;1.30;;;13.60;99.90;;;;;;5115544;28;20485;-58
2023/10/31 12:48:05;;;;;;;1.00;0.80;;;13.80;99.90;;;;;;5116331;28;20437;-61
2023/10/31 12:50:37;;;;;;;1.23;1.00;;;14.10;99.90;;;;;;5111423;28;20509;-62